createdAt,value
2019-05-05T11:14:48.950Z,99187.28
2019-05-05T11:24:59.948Z,99189.48
2019-05-05T11:34:53.549Z,99184.82
2019-05-05T11:44:54.414Z,99187.83
2019-05-05T11:55:08.627Z,99186.30
2019-05-05T12:04:58.350Z,99179.77
2019-05-05T12:14:58.999Z,99174.86
2019-05-05T12:24:59.702Z,99169.16
2019-05-05T12:35:00.390Z,99165.88
2019-05-05T12:45:01.014Z,99164.54
2019-05-05T12:55:05.124Z,99163.67
2019-05-05T13:05:06.064Z,99155.92
2019-05-05T13:15:08.456Z,99161.28
2019-05-05T13:25:09.168Z,99150.55
2019-05-05T13:35:09.925Z,99160.22
2019-05-05T13:45:10.975Z,99154.23
2019-05-05T13:55:13.843Z,99162.61
2019-05-05T14:05:14.828Z,99152.24
2019-05-05T14:15:18.044Z,99139.34
2019-05-05T14:25:24.220Z,99118.88
2019-05-05T14:35:25.403Z,99126.88
2019-05-05T14:45:26.149Z,99116.92
2019-05-05T14:55:26.865Z,99109.08
2019-05-05T15:05:27.757Z,99105.81
2019-05-05T15:15:28.615Z,99105.58
2019-05-05T15:25:30.262Z,99109.73
2019-05-05T15:35:30.931Z,99111.11
2019-05-05T15:45:31.610Z,99121.81
2019-05-05T15:55:33.984Z,99130.71
2019-05-05T16:05:34.695Z,99141.39
2019-05-05T16:15:35.398Z,99156.16
2019-05-05T16:25:36.446Z,99154.70
2019-05-05T16:35:37.421Z,99150.64
2019-05-05T16:45:38.468Z,99152.48
2019-05-05T16:55:39.161Z,99149.48
2019-05-05T17:05:40.061Z,99144.70
2019-05-05T17:15:40.773Z,99141.48
2019-05-05T17:25:43.810Z,99148.94
2019-05-05T17:35:44.347Z,99155.00
2019-05-05T17:45:45.031Z,99161.20
2019-05-05T17:55:45.922Z,99166.84
2019-05-05T18:05:46.603Z,99165.64
2019-05-05T18:15:48.362Z,99171.00
2019-05-05T18:25:49.317Z,99179.86
2019-05-05T18:35:50.233Z,99194.01
2019-05-05T18:45:51.204Z,99201.27
2019-05-05T18:55:53.887Z,99209.63
2019-05-05T19:05:54.746Z,99218.88
2019-05-05T19:15:55.623Z,99234.42
2019-05-05T19:25:58.504Z,99243.35
2019-05-05T19:35:59.226Z,99255.11
2019-05-05T19:46:00.155Z,99262.00
2019-05-05T19:56:01.042Z,99265.98
2019-05-05T20:06:02.018Z,99271.19
2019-05-05T20:16:04.488Z,99272.45
2019-05-05T20:26:05.559Z,99272.92
2019-05-05T20:36:06.517Z,99271.73
2019-05-05T20:46:08.321Z,99275.00
2019-05-05T20:56:09.007Z,99286.93
2019-05-05T21:06:09.763Z,99275.43
2019-05-05T21:16:10.694Z,99276.89
2019-05-05T21:26:11.384Z,99274.52
2019-05-05T21:36:14.568Z,99281.56
2019-05-05T21:46:15.397Z,99271.73
2019-05-05T21:56:16.295Z,99276.08
2019-05-05T22:06:16.937Z,99276.56
2019-05-05T22:16:17.637Z,99273.68
2019-05-05T22:26:18.559Z,99272.75
2019-05-05T22:36:19.210Z,99271.95
2019-05-05T22:46:19.897Z,99266.33
2019-05-05T22:56:20.814Z,99268.53
2019-05-05T23:06:21.592Z,99265.71
2019-05-05T23:16:23.757Z,99263.47
2019-05-05T23:26:25.412Z,99263.89
2019-05-05T23:36:26.101Z,99261.84
2019-05-05T23:46:26.989Z,99273.98
2019-05-05T23:56:27.891Z,99273.84
